sensor_id;sensor_type;location;lat;lon;timestamp;P1;durP1;ratioP1;P2;durP2;ratioP2
15408;SDS011;7803;48.130;13.788;2022-07-17T00:01:09;4.65;;;2.72;;
15408;SDS011;7803;48.130;13.788;2022-07-17T00:04:12;5.07;;;3.03;;
15408;SDS011;7803;48.130;13.788;2022-07-17T00:07:14;7.30;;;3.05;;
15408;SDS011;7803;48.130;13.788;2022-07-17T00:10:16;6.00;;;2.95;;
15408;SDS011;7803;48.130;13.788;2022-07-17T00:13:19;3.47;;;2.90;;
15408;SDS011;7803;48.130;13.788;2022-07-17T00:16:22;7.85;;;3.08;;
15408;SDS011;7803;48.130;13.788;2022-07-17T00:19:25;6.85;;;3.20;;
15408;SDS011;7803;48.130;13.788;2022-07-17T00:22:27;6.47;;;3.35;;
15408;SDS011;7803;48.130;13.788;2022-07-17T00:25:29;7.20;;;3.08;;
15408;SDS011;7803;48.130;13.788;2022-07-17T00:28:32;5.60;;;2.92;;
15408;SDS011;7803;48.130;13.788;2022-07-17T00:31:34;6.65;;;3.20;;
15408;SDS011;7803;48.130;13.788;2022-07-17T00:34:37;7.03;;;4.13;;
15408;SDS011;7803;48.130;13.788;2022-07-17T00:37:40;8.45;;;4.15;;
15408;SDS011;7803;48.130;13.788;2022-07-17T00:40:42;7.20;;;3.75;;
15408;SDS011;7803;48.130;13.788;2022-07-17T00:43:45;11.57;;;3.92;;
15408;SDS011;7803;48.130;13.788;2022-07-17T00:46:47;11.48;;;3.90;;
15408;SDS011;7803;48.130;13.788;2022-07-17T00:49:51;11.88;;;4.10;;
15408;SDS011;7803;48.130;13.788;2022-07-17T09:37:01;4.20;;;2.60;;
15408;SDS011;7803;48.130;13.788;2022-07-17T09:40:08;3.85;;;2.55;;
15408;SDS011;7803;48.130;13.788;2022-07-17T09:43:11;4.25;;;2.70;;
15408;SDS011;7803;48.130;13.788;2022-07-17T09:46:14;5.18;;;3.30;;
15408;SDS011;7803;48.130;13.788;2022-07-17T09:49:17;4.82;;;2.80;;
15408;SDS011;7803;48.130;13.788;2022-07-17T09:52:22;2.97;;;2.60;;
15408;SDS011;7803;48.130;13.788;2022-07-17T09:55:27;3.95;;;2.70;;
15408;SDS011;7803;48.130;13.788;2022-07-17T09:58:31;3.33;;;2.60;;
15408;SDS011;7803;48.130;13.788;2022-07-17T10:01:35;4.13;;;2.63;;
15408;SDS011;7803;48.130;13.788;2022-07-17T10:04:39;5.00;;;2.80;;
15408;SDS011;7803;48.130;13.788;2022-07-17T10:07:44;3.30;;;2.60;;
15408;SDS011;7803;48.130;13.788;2022-07-17T10:10:47;3.35;;;2.30;;
15408;SDS011;7803;48.130;13.788;2022-07-17T10:13:51;3.72;;;2.65;;
15408;SDS011;7803;48.130;13.788;2022-07-17T10:17:05;2.58;;;2.38;;
15408;SDS011;7803;48.130;13.788;2022-07-17T10:20:08;4.45;;;2.67;;
15408;SDS011;7803;48.130;13.788;2022-07-17T10:23:13;3.90;;;2.50;;
15408;SDS011;7803;48.130;13.788;2022-07-17T10:26:16;3.42;;;2.65;;
15408;SDS011;7803;48.130;13.788;2022-07-17T10:29:31;4.75;;;2.80;;
15408;SDS011;7803;48.130;13.788;2022-07-17T10:32:35;4.10;;;2.47;;
15408;SDS011;7803;48.130;13.788;2022-07-17T10:35:42;5.10;;;2.60;;
15408;SDS011;7803;48.130;13.788;2022-07-17T10:38:48;3.13;;;2.45;;
15408;SDS011;7803;48.130;13.788;2022-07-17T10:41:55;5.10;;;2.70;;
15408;SDS011;7803;48.130;13.788;2022-07-17T10:45:04;5.40;;;2.80;;
15408;SDS011;7803;48.130;13.788;2022-07-17T10:48:08;9.07;;;2.85;;
15408;SDS011;7803;48.130;13.788;2022-07-17T10:51:12;3.47;;;2.70;;
15408;SDS011;7803;48.130;13.788;2022-07-17T10:54:15;5.07;;;2.47;;
15408;SDS011;7803;48.130;13.788;2022-07-17T10:57:17;4.80;;;2.30;;
15408;SDS011;7803;48.130;13.788;2022-07-17T11:00:19;3.47;;;2.40;;
15408;SDS011;7803;48.130;13.788;2022-07-17T11:03:21;2.88;;;2.40;;
15408;SDS011;7803;48.130;13.788;2022-07-17T11:06:24;3.45;;;2.30;;
15408;SDS011;7803;48.130;13.788;2022-07-17T11:09:31;4.05;;;2.50;;
15408;SDS011;7803;48.130;13.788;2022-07-17T11:12:34;4.50;;;2.47;;
15408;SDS011;7803;48.130;13.788;2022-07-17T11:15:43;3.10;;;2.28;;
15408;SDS011;7803;48.130;13.788;2022-07-17T11:18:46;3.30;;;2.38;;
15408;SDS011;7803;48.130;13.788;2022-07-17T11:21:50;3.65;;;2.75;;
15408;SDS011;7803;48.130;13.788;2022-07-17T11:24:54;4.05;;;2.65;;
15408;SDS011;7803;48.130;13.788;2022-07-17T11:27:56;2.50;;;2.20;;
15408;SDS011;7803;48.130;13.788;2022-07-17T11:30:58;2.85;;;2.30;;
15408;SDS011;7803;48.130;13.788;2022-07-17T11:34:05;2.47;;;2.28;;
15408;SDS011;7803;48.130;13.788;2022-07-17T11:37:09;3.03;;;2.20;;
15408;SDS011;7803;48.130;13.788;2022-07-17T11:40:12;3.28;;;2.35;;
15408;SDS011;7803;48.130;13.788;2022-07-17T11:43:14;3.75;;;2.50;;
15408;SDS011;7803;48.130;13.788;2022-07-17T11:46:17;2.67;;;2.38;;
15408;SDS011;7803;48.130;13.788;2022-07-17T11:49:25;4.22;;;2.65;;
15408;SDS011;7803;48.130;13.788;2022-07-17T11:52:38;3.33;;;2.85;;
15408;SDS011;7803;48.130;13.788;2022-07-17T11:55:42;3.00;;;2.67;;
15408;SDS011;7803;48.130;13.788;2022-07-17T11:58:45;2.85;;;2.53;;
15408;SDS011;7803;48.130;13.788;2022-07-17T12:01:48;2.63;;;2.42;;
15408;SDS011;7803;48.130;13.788;2022-07-17T12:04:51;2.78;;;2.58;;
15408;SDS011;7803;48.130;13.788;2022-07-17T12:07:55;2.92;;;2.38;;
15408;SDS011;7803;48.130;13.788;2022-07-17T12:11:02;2.67;;;2.30;;
15408;SDS011;7803;48.130;13.788;2022-07-17T12:14:06;2.45;;;2.22;;
15408;SDS011;7803;48.130;13.788;2022-07-17T12:17:08;2.63;;;2.33;;
15408;SDS011;7803;48.130;13.788;2022-07-17T12:20:10;2.60;;;2.40;;
15408;SDS011;7803;48.130;13.788;2022-07-17T12:23:25;2.60;;;2.40;;
15408;SDS011;7803;48.130;13.788;2022-07-17T12:26:29;2.53;;;2.33;;
15408;SDS011;7803;48.130;13.788;2022-07-17T12:29:33;2.55;;;2.33;;
15408;SDS011;7803;48.130;13.788;2022-07-17T12:32:39;2.50;;;2.30;;
15408;SDS011;7803;48.130;13.788;2022-07-17T12:35:42;3.22;;;2.40;;
15408;SDS011;7803;48.130;13.788;2022-07-17T12:38:44;2.40;;;2.20;;
15408;SDS011;7803;48.130;13.788;2022-07-17T12:41:47;2.47;;;2.28;;
15408;SDS011;7803;48.130;13.788;2022-07-17T12:44:49;2.97;;;2.40;;
15408;SDS011;7803;48.130;13.788;2022-07-17T12:47:51;2.60;;;2.40;;
15408;SDS011;7803;48.130;13.788;2022-07-17T12:50:54;2.80;;;2.60;;
15408;SDS011;7803;48.130;13.788;2022-07-17T12:53:56;3.97;;;3.67;;
15408;SDS011;7803;48.130;13.788;2022-07-17T12:56:59;4.60;;;4.20;;
15408;SDS011;7803;48.130;13.788;2022-07-17T13:00:02;8.52;;;7.72;;
15408;SDS011;7803;48.130;13.788;2022-07-17T13:03:04;20.40;;;10.20;;
15408;SDS011;7803;48.130;13.788;2022-07-17T13:06:07;10.57;;;8.60;;
15408;SDS011;7803;48.130;13.788;2022-07-17T13:09:09;8.93;;;7.55;;
15408;SDS011;7803;48.130;13.788;2022-07-17T13:12:14;8.27;;;7.50;;
15408;SDS011;7803;48.130;13.788;2022-07-17T13:15:16;9.25;;;7.70;;
15408;SDS011;7803;48.130;13.788;2022-07-17T13:18:18;8.55;;;7.50;;
15408;SDS011;7803;48.130;13.788;2022-07-17T13:21:20;13.05;;;7.90;;
15408;SDS011;7803;48.130;13.788;2022-07-17T13:24:22;19.80;;;10.38;;
15408;SDS011;7803;48.130;13.788;2022-07-17T13:27:25;22.27;;;10.68;;
15408;SDS011;7803;48.130;13.788;2022-07-17T13:30:27;19.95;;;10.43;;
15408;SDS011;7803;48.130;13.788;2022-07-17T13:33:29;24.15;;;10.90;;
15408;SDS011;7803;48.130;13.788;2022-07-17T13:36:31;19.38;;;10.13;;
15408;SDS011;7803;48.130;13.788;2022-07-17T13:39:33;18.27;;;9.80;;
15408;SDS011;7803;48.130;13.788;2022-07-17T13:42:37;13.75;;;8.63;;
15408;SDS011;7803;48.130;13.788;2022-07-17T13:45:39;12.82;;;8.32;;
15408;SDS011;7803;48.130;13.788;2022-07-17T13:48:41;15.23;;;8.25;;
15408;SDS011;7803;48.130;13.788;2022-07-17T13:51:43;23.10;;;9.25;;
15408;SDS011;7803;48.130;13.788;2022-07-17T13:54:45;17.92;;;8.93;;
15408;SDS011;7803;48.130;13.788;2022-07-17T13:57:48;24.13;;;10.32;;
15408;SDS011;7803;48.130;13.788;2022-07-17T14:00:50;27.58;;;11.65;;
15408;SDS011;7803;48.130;13.788;2022-07-17T14:03:52;25.65;;;11.60;;
15408;SDS011;7803;48.130;13.788;2022-07-17T14:06:54;22.27;;;10.20;;
15408;SDS011;7803;48.130;13.788;2022-07-17T14:09:56;20.20;;;9.75;;
15408;SDS011;7803;48.130;13.788;2022-07-17T14:13:00;18.20;;;9.02;;
15408;SDS011;7803;48.130;13.788;2022-07-17T14:16:02;15.85;;;7.90;;
15408;SDS011;7803;48.130;13.788;2022-07-17T14:19:05;14.32;;;8.27;;
15408;SDS011;7803;48.130;13.788;2022-07-17T14:22:07;11.90;;;7.13;;
15408;SDS011;7803;48.130;13.788;2022-07-17T14:25:09;13.38;;;7.53;;
15408;SDS011;7803;48.130;13.788;2022-07-17T14:28:13;12.35;;;7.30;;
15408;SDS011;7803;48.130;13.788;2022-07-17T14:31:15;10.82;;;6.35;;
15408;SDS011;7803;48.130;13.788;2022-07-17T14:34:17;10.52;;;6.13;;
15408;SDS011;7803;48.130;13.788;2022-07-17T14:37:19;9.80;;;6.10;;
15408;SDS011;7803;48.130;13.788;2022-07-17T14:40:21;11.40;;;5.90;;
15408;SDS011;7803;48.130;13.788;2022-07-17T14:43:25;10.23;;;5.82;;
15408;SDS011;7803;48.130;13.788;2022-07-17T14:46:27;9.68;;;6.10;;
15408;SDS011;7803;48.130;13.788;2022-07-17T14:49:29;8.73;;;5.82;;
15408;SDS011;7803;48.130;13.788;2022-07-17T14:52:31;9.52;;;6.13;;
15408;SDS011;7803;48.130;13.788;2022-07-17T14:55:33;8.98;;;5.85;;
15408;SDS011;7803;48.130;13.788;2022-07-17T14:58:36;8.60;;;5.60;;
15408;SDS011;7803;48.130;13.788;2022-07-17T15:01:38;9.40;;;5.55;;
15408;SDS011;7803;48.130;13.788;2022-07-17T15:04:40;8.68;;;5.20;;
15408;SDS011;7803;48.130;13.788;2022-07-17T15:07:42;7.78;;;5.07;;
15408;SDS011;7803;48.130;13.788;2022-07-17T15:10:44;7.00;;;4.80;;
15408;SDS011;7803;48.130;13.788;2022-07-17T15:13:47;6.28;;;4.50;;
15408;SDS011;7803;48.130;13.788;2022-07-17T15:16:49;6.53;;;4.70;;
15408;SDS011;7803;48.130;13.788;2022-07-17T15:19:52;8.40;;;4.90;;
15408;SDS011;7803;48.130;13.788;2022-07-17T15:22:53;7.25;;;4.60;;
15408;SDS011;7803;48.130;13.788;2022-07-17T15:25:56;6.47;;;4.45;;
15408;SDS011;7803;48.130;13.788;2022-07-17T15:28:59;6.47;;;4.43;;
15408;SDS011;7803;48.130;13.788;2022-07-17T15:32:01;7.15;;;4.50;;
15408;SDS011;7803;48.130;13.788;2022-07-17T15:35:04;6.38;;;4.47;;
15408;SDS011;7803;48.130;13.788;2022-07-17T15:38:07;6.07;;;4.28;;
15408;SDS011;7803;48.130;13.788;2022-07-17T15:41:09;6.75;;;4.22;;
15408;SDS011;7803;48.130;13.788;2022-07-17T15:44:12;6.88;;;4.90;;
15408;SDS011;7803;48.130;13.788;2022-07-17T15:47:16;5.32;;;4.20;;
15408;SDS011;7803;48.130;13.788;2022-07-17T15:50:18;7.85;;;4.28;;
15408;SDS011;7803;48.130;13.788;2022-07-17T15:53:20;5.05;;;3.83;;
15408;SDS011;7803;48.130;13.788;2022-07-17T15:56:22;6.82;;;4.50;;
15408;SDS011;7803;48.130;13.788;2022-07-17T15:59:26;5.88;;;4.05;;
15408;SDS011;7803;48.130;13.788;2022-07-17T16:02:28;6.55;;;4.28;;
15408;SDS011;7803;48.130;13.788;2022-07-17T16:05:30;7.15;;;3.83;;
15408;SDS011;7803;48.130;13.788;2022-07-17T16:08:32;4.57;;;3.50;;
15408;SDS011;7803;48.130;13.788;2022-07-17T16:11:34;3.72;;;3.22;;
15408;SDS011;7803;48.130;13.788;2022-07-17T16:14:37;5.93;;;3.72;;
15408;SDS011;7803;48.130;13.788;2022-07-17T16:17:39;3.92;;;3.30;;
15408;SDS011;7803;48.130;13.788;2022-07-17T16:20:41;4.60;;;3.50;;
15408;SDS011;7803;48.130;13.788;2022-07-17T16:23:44;4.20;;;3.42;;
15408;SDS011;7803;48.130;13.788;2022-07-17T16:26:46;4.43;;;3.70;;
15408;SDS011;7803;48.130;13.788;2022-07-17T16:29:49;4.35;;;3.28;;
15408;SDS011;7803;48.130;13.788;2022-07-17T16:32:51;4.35;;;3.20;;
15408;SDS011;7803;48.130;13.788;2022-07-17T16:35:53;4.22;;;3.28;;
15408;SDS011;7803;48.130;13.788;2022-07-17T16:38:55;4.57;;;3.17;;
15408;SDS011;7803;48.130;13.788;2022-07-17T16:41:57;3.80;;;3.20;;
15408;SDS011;7803;48.130;13.788;2022-07-17T16:45:01;3.60;;;3.05;;
15408;SDS011;7803;48.130;13.788;2022-07-17T16:48:04;3.72;;;2.80;;
15408;SDS011;7803;48.130;13.788;2022-07-17T16:51:06;4.30;;;3.10;;
15408;SDS011;7803;48.130;13.788;2022-07-17T16:54:08;4.20;;;3.03;;
15408;SDS011;7803;48.130;13.788;2022-07-17T16:57:10;4.90;;;2.83;;
15408;SDS011;7803;48.130;13.788;2022-07-17T17:00:14;3.10;;;2.72;;
15408;SDS011;7803;48.130;13.788;2022-07-17T17:03:16;3.30;;;2.83;;
15408;SDS011;7803;48.130;13.788;2022-07-17T17:06:18;4.25;;;3.00;;
15408;SDS011;7803;48.130;13.788;2022-07-17T17:09:20;3.40;;;2.97;;
15408;SDS011;7803;48.130;13.788;2022-07-17T17:12:22;4.10;;;3.08;;
15408;SDS011;7803;48.130;13.788;2022-07-17T17:15:25;4.07;;;2.92;;
15408;SDS011;7803;48.130;13.788;2022-07-17T17:18:27;3.42;;;2.95;;
15408;SDS011;7803;48.130;13.788;2022-07-17T17:21:30;4.55;;;2.70;;
15408;SDS011;7803;48.130;13.788;2022-07-17T17:24:32;3.10;;;2.70;;
15408;SDS011;7803;48.130;13.788;2022-07-17T17:27:34;2.60;;;2.40;;
15408;SDS011;7803;48.130;13.788;2022-07-17T17:30:38;2.85;;;2.58;;
15408;SDS011;7803;48.130;13.788;2022-07-17T17:33:40;2.97;;;2.67;;
15408;SDS011;7803;48.130;13.788;2022-07-17T17:36:42;3.22;;;2.50;;
15408;SDS011;7803;48.130;13.788;2022-07-17T17:39:44;2.72;;;2.53;;
15408;SDS011;7803;48.130;13.788;2022-07-17T17:42:46;2.85;;;2.50;;
15408;SDS011;7803;48.130;13.788;2022-07-17T17:45:49;2.83;;;2.40;;
15408;SDS011;7803;48.130;13.788;2022-07-17T17:48:53;3.10;;;2.60;;
15408;SDS011;7803;48.130;13.788;2022-07-17T17:51:55;3.70;;;2.30;;
15408;SDS011;7803;48.130;13.788;2022-07-17T17:54:57;2.50;;;2.30;;
15408;SDS011;7803;48.130;13.788;2022-07-17T17:57:59;2.78;;;2.50;;
15408;SDS011;7803;48.130;13.788;2022-07-17T18:01:03;3.58;;;2.38;;
15408;SDS011;7803;48.130;13.788;2022-07-17T18:04:05;3.03;;;2.53;;
15408;SDS011;7803;48.130;13.788;2022-07-17T18:07:07;3.88;;;2.40;;
15408;SDS011;7803;48.130;13.788;2022-07-17T18:10:09;2.92;;;2.33;;
15408;SDS011;7803;48.130;13.788;2022-07-17T18:13:11;2.70;;;2.40;;
15408;SDS011;7803;48.130;13.788;2022-07-17T18:16:15;2.67;;;2.28;;
15408;SDS011;7803;48.130;13.788;2022-07-17T18:19:17;3.60;;;2.55;;
15408;SDS011;7803;48.130;13.788;2022-07-17T18:22:19;2.88;;;2.30;;
15408;SDS011;7803;48.130;13.788;2022-07-17T18:25:21;2.67;;;2.35;;
15408;SDS011;7803;48.130;13.788;2022-07-17T18:28:24;3.03;;;2.50;;
15408;SDS011;7803;48.130;13.788;2022-07-17T18:31:27;2.92;;;2.38;;
15408;SDS011;7803;48.130;13.788;2022-07-17T18:34:29;2.15;;;1.95;;
15408;SDS011;7803;48.130;13.788;2022-07-17T18:37:32;2.58;;;2.30;;
15408;SDS011;7803;48.130;13.788;2022-07-17T18:40:33;3.20;;;2.20;;
15408;SDS011;7803;48.130;13.788;2022-07-17T18:43:35;2.70;;;2.50;;
15408;SDS011;7803;48.130;13.788;2022-07-17T18:46:39;2.88;;;2.45;;
15408;SDS011;7803;48.130;13.788;2022-07-17T18:49:41;2.53;;;2.30;;
15408;SDS011;7803;48.130;13.788;2022-07-17T18:52:43;2.42;;;2.22;;
15408;SDS011;7803;48.130;13.788;2022-07-17T18:55:45;3.55;;;2.70;;
15408;SDS011;7803;48.130;13.788;2022-07-17T18:58:48;3.03;;;2.45;;
15408;SDS011;7803;48.130;13.788;2022-07-17T19:01:51;2.55;;;2.35;;
15408;SDS011;7803;48.130;13.788;2022-07-17T19:04:53;2.70;;;2.20;;
15408;SDS011;7803;48.130;13.788;2022-07-17T19:07:55;2.40;;;2.20;;
15408;SDS011;7803;48.130;13.788;2022-07-17T19:10:57;2.58;;;2.38;;
15408;SDS011;7803;48.130;13.788;2022-07-17T19:13:59;2.60;;;2.38;;
15408;SDS011;7803;48.130;13.788;2022-07-17T19:17:03;2.60;;;2.40;;
15408;SDS011;7803;48.130;13.788;2022-07-17T19:20:05;2.95;;;2.60;;
15408;SDS011;7803;48.130;13.788;2022-07-17T19:23:10;2.40;;;2.20;;
15408;SDS011;7803;48.130;13.788;2022-07-17T19:26:13;3.78;;;2.50;;
15408;SDS011;7803;48.130;13.788;2022-07-17T19:29:15;2.80;;;2.47;;
15408;SDS011;7803;48.130;13.788;2022-07-17T19:32:19;2.90;;;2.40;;
15408;SDS011;7803;48.130;13.788;2022-07-17T19:35:21;2.33;;;2.13;;
15408;SDS011;7803;48.130;13.788;2022-07-17T19:38:23;2.60;;;2.40;;
15408;SDS011;7803;48.130;13.788;2022-07-17T19:41:25;2.80;;;2.42;;
15408;SDS011;7803;48.130;13.788;2022-07-17T19:44:28;2.63;;;2.40;;
15408;SDS011;7803;48.130;13.788;2022-07-17T19:47:31;2.60;;;2.40;;
15408;SDS011;7803;48.130;13.788;2022-07-17T19:50:33;2.65;;;2.45;;
15408;SDS011;7803;48.130;13.788;2022-07-17T19:53:35;2.42;;;2.22;;
15408;SDS011;7803;48.130;13.788;2022-07-17T19:56:37;2.72;;;2.40;;
15408;SDS011;7803;48.130;13.788;2022-07-17T19:59:39;2.70;;;2.30;;
15408;SDS011;7803;48.130;13.788;2022-07-17T20:02:42;2.60;;;2.40;;
15408;SDS011;7803;48.130;13.788;2022-07-17T20:05:45;2.90;;;2.60;;
15408;SDS011;7803;48.130;13.788;2022-07-17T20:08:47;2.90;;;2.60;;
15408;SDS011;7803;48.130;13.788;2022-07-17T20:11:49;2.45;;;2.25;;
15408;SDS011;7803;48.130;13.788;2022-07-17T20:14:51;2.50;;;2.10;;
15408;SDS011;7803;48.130;13.788;2022-07-17T20:17:54;2.45;;;2.25;;
15408;SDS011;7803;48.130;13.788;2022-07-17T20:20:56;2.20;;;2.00;;
15408;SDS011;7803;48.130;13.788;2022-07-17T20:23:58;2.25;;;2.05;;
15408;SDS011;7803;48.130;13.788;2022-07-17T20:27:00;2.40;;;2.20;;
15408;SDS011;7803;48.130;13.788;2022-07-17T20:30:02;2.50;;;2.30;;
15408;SDS011;7803;48.130;13.788;2022-07-17T20:33:08;2.30;;;2.10;;
15408;SDS011;7803;48.130;13.788;2022-07-17T20:36:10;2.88;;;2.40;;
15408;SDS011;7803;48.130;13.788;2022-07-17T20:39:12;2.67;;;2.42;;
15408;SDS011;7803;48.130;13.788;2022-07-17T20:42:14;2.60;;;2.40;;
15408;SDS011;7803;48.130;13.788;2022-07-17T20:45:16;2.53;;;2.25;;
15408;SDS011;7803;48.130;13.788;2022-07-17T20:48:19;2.33;;;2.10;;
15408;SDS011;7803;48.130;13.788;2022-07-17T20:51:21;2.67;;;2.47;;
15408;SDS011;7803;48.130;13.788;2022-07-17T20:54:23;2.42;;;2.22;;
15408;SDS011;7803;48.130;13.788;2022-07-17T20:57:25;2.30;;;2.10;;
15408;SDS011;7803;48.130;13.788;2022-07-17T21:00:28;2.00;;;1.90;;
15408;SDS011;7803;48.130;13.788;2022-07-17T21:03:31;2.53;;;2.33;;
15408;SDS011;7803;48.130;13.788;2022-07-17T21:06:33;2.75;;;2.20;;
15408;SDS011;7803;48.130;13.788;2022-07-17T21:09:35;2.28;;;2.08;;
15408;SDS011;7803;48.130;13.788;2022-07-17T21:12:37;2.42;;;2.22;;
15408;SDS011;7803;48.130;13.788;2022-07-17T21:15:39;2.25;;;2.05;;
15408;SDS011;7803;48.130;13.788;2022-07-17T21:18:43;2.55;;;2.35;;
15408;SDS011;7803;48.130;13.788;2022-07-17T21:21:45;2.10;;;2.00;;
15408;SDS011;7803;48.130;13.788;2022-07-17T21:24:47;2.58;;;2.30;;
15408;SDS011;7803;48.130;13.788;2022-07-17T21:27:49;2.65;;;2.25;;
15408;SDS011;7803;48.130;13.788;2022-07-17T21:30:51;2.42;;;2.22;;
15408;SDS011;7803;48.130;13.788;2022-07-17T21:33:54;2.50;;;2.30;;
15408;SDS011;7803;48.130;13.788;2022-07-17T21:36:56;2.60;;;2.40;;
15408;SDS011;7803;48.130;13.788;2022-07-17T21:39:58;2.70;;;2.40;;
15408;SDS011;7803;48.130;13.788;2022-07-17T21:43:00;2.40;;;2.20;;
15408;SDS011;7803;48.130;13.788;2022-07-17T21:46:02;2.40;;;2.20;;
15408;SDS011;7803;48.130;13.788;2022-07-17T21:49:07;3.63;;;2.17;;
15408;SDS011;7803;48.130;13.788;2022-07-17T21:52:09;2.40;;;2.20;;
15408;SDS011;7803;48.130;13.788;2022-07-17T21:55:11;2.30;;;2.10;;
15408;SDS011;7803;48.130;13.788;2022-07-17T21:58:13;2.72;;;2.45;;
15408;SDS011;7803;48.130;13.788;2022-07-17T22:01:17;2.83;;;2.63;;
15408;SDS011;7803;48.130;13.788;2022-07-17T22:04:21;2.42;;;2.22;;
15408;SDS011;7803;48.130;13.788;2022-07-17T22:07:23;2.58;;;2.38;;
15408;SDS011;7803;48.130;13.788;2022-07-17T22:10:25;3.15;;;2.78;;
15408;SDS011;7803;48.130;13.788;2022-07-17T22:13:30;2.63;;;2.42;;
15408;SDS011;7803;48.130;13.788;2022-07-17T22:16:32;2.92;;;2.63;;
15408;SDS011;7803;48.130;13.788;2022-07-17T22:19:36;3.17;;;2.80;;
15408;SDS011;7803;48.130;13.788;2022-07-17T22:22:39;2.92;;;2.60;;
15408;SDS011;7803;48.130;13.788;2022-07-17T22:25:41;2.80;;;2.50;;
15408;SDS011;7803;48.130;13.788;2022-07-17T22:28:44;3.10;;;2.80;;
15408;SDS011;7803;48.130;13.788;2022-07-17T22:31:47;3.88;;;2.72;;
15408;SDS011;7803;48.130;13.788;2022-07-17T22:34:50;3.00;;;2.70;;
15408;SDS011;7803;48.130;13.788;2022-07-17T22:37:52;3.47;;;2.90;;
15408;SDS011;7803;48.130;13.788;2022-07-17T22:40:54;2.78;;;2.58;;
15408;SDS011;7803;48.130;13.788;2022-07-17T22:43:56;3.05;;;2.60;;
15408;SDS011;7803;48.130;13.788;2022-07-17T22:46:58;3.00;;;2.70;;
15408;SDS011;7803;48.130;13.788;2022-07-17T22:50:02;3.55;;;2.97;;
15408;SDS011;7803;48.130;13.788;2022-07-17T22:53:06;2.70;;;2.50;;
15408;SDS011;7803;48.130;13.788;2022-07-17T22:56:08;3.88;;;2.92;;
15408;SDS011;7803;48.130;13.788;2022-07-17T22:59:10;4.32;;;3.25;;
15408;SDS011;7803;48.130;13.788;2022-07-17T23:02:12;2.80;;;2.45;;
15408;SDS011;7803;48.130;13.788;2022-07-17T23:05:17;3.10;;;2.80;;
15408;SDS011;7803;48.130;13.788;2022-07-17T23:08:19;3.05;;;2.80;;
15408;SDS011;7803;48.130;13.788;2022-07-17T23:11:21;3.30;;;2.70;;
15408;SDS011;7803;48.130;13.788;2022-07-17T23:14:24;2.92;;;2.67;;
15408;SDS011;7803;48.130;13.788;2022-07-17T23:17:26;3.08;;;2.80;;
15408;SDS011;7803;48.130;13.788;2022-07-17T23:20:29;2.97;;;2.78;;
15408;SDS011;7803;48.130;13.788;2022-07-17T23:23:31;2.85;;;2.63;;
15408;SDS011;7803;48.130;13.788;2022-07-17T23:26:33;3.30;;;3.00;;
15408;SDS011;7803;48.130;13.788;2022-07-17T23:29:35;3.30;;;3.00;;
15408;SDS011;7803;48.130;13.788;2022-07-17T23:32:37;3.15;;;2.83;;
15408;SDS011;7803;48.130;13.788;2022-07-17T23:35:41;3.28;;;2.92;;
15408;SDS011;7803;48.130;13.788;2022-07-17T23:38:43;3.63;;;3.03;;
15408;SDS011;7803;48.130;13.788;2022-07-17T23:41:45;3.13;;;2.83;;
15408;SDS011;7803;48.130;13.788;2022-07-17T23:44:47;3.03;;;2.60;;
15408;SDS011;7803;48.130;13.788;2022-07-17T23:47:49;3.00;;;2.70;;
15408;SDS011;7803;48.130;13.788;2022-07-17T23:50:53;3.75;;;2.95;;
15408;SDS011;7803;48.130;13.788;2022-07-17T23:53:55;3.20;;;2.80;;
15408;SDS011;7803;48.130;13.788;2022-07-17T23:56:57;3.08;;;2.80;;
